createdAt,value
2023-03-22T00:00:15.488Z,11.90
2023-03-22T00:02:42.518Z,11.90
2023-03-22T00:05:09.914Z,11.90
2023-03-22T00:07:37.838Z,11.90
2023-03-22T00:10:06.028Z,11.90
2023-03-22T00:12:32.904Z,11.90
2023-03-22T00:15:00.409Z,12.00
2023-03-22T00:17:27.334Z,12.00
2023-03-22T00:19:58.505Z,11.90
2023-03-22T00:22:26.289Z,12.00
2023-03-22T00:24:53.247Z,12.00
2023-03-22T00:27:20.276Z,12.00
2023-03-22T00:29:47.537Z,12.00
2023-03-22T00:32:14.483Z,12.00
2023-03-22T00:34:41.618Z,12.00
2023-03-22T00:37:08.556Z,12.10
2023-03-22T00:39:37.029Z,12.10
2023-03-22T00:42:05.355Z,12.10
2023-03-22T00:44:32.580Z,12.10
2023-03-22T00:46:59.507Z,12.10
2023-03-22T00:49:27.483Z,12.10
2023-03-22T00:51:55.074Z,12.10
2023-03-22T00:54:22.241Z,12.10
2023-03-22T00:56:50.051Z,12.10
2023-03-22T00:59:17.323Z,12.10
2023-03-22T01:01:44.343Z,12.00
2023-03-22T01:04:15.641Z,12.10
2023-03-22T01:06:42.645Z,12.00
2023-03-22T01:09:15.040Z,12.00
2023-03-22T01:11:43.492Z,12.00
2023-03-22T01:14:10.552Z,12.00
2023-03-22T01:16:37.914Z,12.00
2023-03-22T01:19:04.990Z,12.00
2023-03-22T01:21:31.952Z,12.00
2023-03-22T01:23:58.951Z,12.00
2023-03-22T01:26:25.903Z,12.00
2023-03-22T01:28:52.942Z,12.00
2023-03-22T01:31:23.659Z,12.00
2023-03-22T01:33:51.012Z,12.00
2023-03-22T01:36:18.071Z,12.00
2023-03-22T01:38:45.173Z,12.00
2023-03-22T01:41:12.106Z,12.00
2023-03-22T01:43:39.198Z,12.00
2023-03-22T01:46:06.496Z,12.00
2023-03-22T01:48:46.457Z,12.00
2023-03-22T01:51:20.625Z,12.00
2023-03-22T01:54:01.174Z,12.00
2023-03-22T01:56:30.515Z,12.00
2023-03-22T01:58:57.469Z,12.00
2023-03-22T02:01:24.721Z,12.10
2023-03-22T02:04:07.240Z,12.00
2023-03-22T02:06:38.453Z,12.10
2023-03-22T02:09:09.390Z,12.10
2023-03-22T02:11:43.806Z,12.10
2023-03-22T02:14:48.425Z,12.00
2023-03-22T02:17:31.326Z,12.10
2023-03-22T02:20:28.305Z,12.10
2023-03-22T02:23:04.256Z,12.10
2023-03-22T02:25:41.375Z,12.10
2023-03-22T02:28:26.410Z,12.00
2023-03-22T02:31:12.687Z,12.00
2023-03-22T02:34:01.267Z,12.00
2023-03-22T02:36:51.649Z,12.00
2023-03-22T02:39:37.230Z,12.00
2023-03-22T02:42:22.509Z,11.90
2023-03-22T02:44:55.743Z,12.00
2023-03-22T02:47:42.300Z,11.90
2023-03-22T02:50:22.130Z,11.90
2023-03-22T02:53:01.389Z,11.90
2023-03-22T02:55:34.999Z,11.90
2023-03-22T02:58:07.941Z,11.90
2023-03-22T03:00:35.165Z,11.80
2023-03-22T03:03:11.600Z,11.80
2023-03-22T03:05:40.233Z,11.90
2023-03-22T03:08:07.225Z,11.90
2023-03-22T03:10:36.878Z,11.80
2023-03-22T03:13:03.853Z,11.80
2023-03-22T03:15:31.246Z,11.80
2023-03-22T03:18:18.434Z,11.80
2023-03-22T03:21:02.727Z,11.90
2023-03-22T03:24:09.359Z,11.80
2023-03-22T03:26:50.940Z,11.90
2023-03-22T03:29:52.095Z,11.90
2023-03-22T03:32:25.741Z,11.90
2023-03-22T03:35:23.158Z,11.80
2023-03-22T03:37:52.986Z,11.80
2023-03-22T03:40:31.476Z,11.80
2023-03-22T03:42:59.213Z,11.80
2023-03-22T03:45:26.351Z,11.80
2023-03-22T03:47:57.164Z,11.80
2023-03-22T03:50:25.206Z,11.80
2023-03-22T03:52:54.499Z,11.80
2023-03-22T03:55:21.897Z,11.70
2023-03-22T03:57:49.027Z,11.70
2023-03-22T04:00:17.097Z,11.70
2023-03-22T04:02:44.381Z,11.70
2023-03-22T04:05:11.914Z,11.70
2023-03-22T04:07:38.846Z,11.70
2023-03-22T04:10:06.687Z,11.70
2023-03-22T04:12:33.635Z,11.70
2023-03-22T04:15:00.601Z,11.80
2023-03-22T04:17:29.393Z,11.70
2023-03-22T04:19:56.812Z,11.70
2023-03-22T04:22:24.310Z,11.70
2023-03-22T04:24:51.369Z,11.70
2023-03-22T04:27:18.605Z,11.60
2023-03-22T04:29:48.809Z,11.70
2023-03-22T04:32:19.173Z,11.70
2023-03-22T04:34:46.612Z,11.70
2023-03-22T04:37:14.488Z,11.60
2023-03-22T04:39:41.843Z,11.60
2023-03-22T04:42:09.065Z,11.60
2023-03-22T04:44:38.504Z,11.60
2023-03-22T04:47:05.608Z,11.60
2023-03-22T04:49:32.779Z,11.60
2023-03-22T04:51:59.845Z,11.60
2023-03-22T04:54:26.927Z,11.60
2023-03-22T04:56:53.981Z,11.60
2023-03-22T04:59:21.085Z,11.60
2023-03-22T05:01:48.751Z,11.60
2023-03-22T05:04:16.210Z,11.60
2023-03-22T05:06:43.338Z,11.60
2023-03-22T05:09:11.696Z,11.60
2023-03-22T05:11:38.870Z,11.50
2023-03-22T05:14:05.894Z,11.60
2023-03-22T05:16:33.310Z,11.50
2023-03-22T05:19:02.519Z,11.50
2023-03-22T05:21:29.968Z,11.50
2023-03-22T05:23:57.433Z,11.50
2023-03-22T05:26:27.888Z,11.50
2023-03-22T05:28:55.465Z,11.50
2023-03-22T05:31:22.660Z,11.50
2023-03-22T05:33:50.781Z,11.50
2023-03-22T05:36:18.596Z,11.50
2023-03-22T05:38:46.768Z,11.50
2023-03-22T05:41:14.548Z,11.50
2023-03-22T05:43:41.589Z,11.50
2023-03-22T05:46:09.124Z,11.50
2023-03-22T05:48:37.974Z,11.50
2023-03-22T05:51:09.171Z,11.50
2023-03-22T05:53:36.487Z,11.50
2023-03-22T05:56:03.623Z,11.50
2023-03-22T05:58:31.113Z,11.50
2023-03-22T06:01:01.156Z,11.50
2023-03-22T06:03:28.708Z,11.50
2023-03-22T06:05:55.909Z,11.50
2023-03-22T06:08:26.383Z,11.60
2023-03-22T06:10:54.278Z,11.50
2023-03-22T06:13:23.658Z,11.50
2023-03-22T06:15:50.717Z,11.50
2023-03-22T06:18:17.894Z,11.50
2023-03-22T06:20:44.924Z,11.50
2023-03-22T06:23:11.948Z,11.50
2023-03-22T06:25:39.156Z,11.50
2023-03-22T06:28:08.585Z,11.50
2023-03-22T06:30:36.132Z,11.60
2023-03-22T06:33:06.293Z,11.60
2023-03-22T06:35:41.167Z,11.50
2023-03-22T06:38:08.459Z,11.50
2023-03-22T06:40:38.305Z,11.60
2023-03-22T06:43:08.280Z,11.60
2023-03-22T06:45:38.627Z,11.60
2023-03-22T06:48:06.360Z,11.60
2023-03-22T06:50:34.297Z,11.60
2023-03-22T06:53:01.464Z,11.60
2023-03-22T06:55:28.895Z,11.60
2023-03-22T06:57:55.835Z,11.60
2023-03-22T07:00:23.006Z,11.60
2023-03-22T07:02:52.636Z,11.60
2023-03-22T07:05:20.164Z,11.70
2023-03-22T07:08:37.482Z,11.70
2023-03-22T07:11:05.067Z,11.70
2023-03-22T07:13:32.319Z,11.70
2023-03-22T07:16:02.880Z,11.80
2023-03-22T07:18:30.646Z,11.80
2023-03-22T07:20:57.706Z,11.80
2023-03-22T07:23:24.675Z,11.90
2023-03-22T07:25:52.248Z,11.90
2023-03-22T07:28:19.286Z,11.90
2023-03-22T07:30:46.486Z,12.00
2023-03-22T07:33:13.428Z,11.90
2023-03-22T07:35:40.868Z,12.00
2023-03-22T07:38:08.081Z,11.90
2023-03-22T07:40:35.086Z,12.00
2023-03-22T07:43:02.186Z,12.00
2023-03-22T07:45:29.189Z,12.00
2023-03-22T07:47:58.476Z,12.00
2023-03-22T07:50:25.688Z,12.00
2023-03-22T07:52:52.695Z,12.00
2023-03-22T07:58:24.351Z,12.00
2023-03-22T08:00:51.582Z,12.10
2023-03-22T08:03:18.918Z,12.10
2023-03-22T08:05:45.913Z,12.10
2023-03-22T08:08:16.144Z,12.10
2023-03-22T08:10:43.232Z,12.10
2023-03-22T08:13:10.741Z,12.20
2023-03-22T08:15:46.943Z,12.20
2023-03-22T08:18:14.190Z,12.20
2023-03-22T08:20:42.279Z,12.30
2023-03-22T08:23:14.571Z,12.30
2023-03-22T08:25:46.869Z,12.30
2023-03-22T08:28:16.011Z,12.30
2023-03-22T08:30:46.892Z,12.40
2023-03-22T08:33:16.204Z,12.30
2023-03-22T08:35:43.310Z,12.30
2023-03-22T08:38:15.372Z,12.40
2023-03-22T08:40:48.566Z,12.40
2023-03-22T08:43:15.692Z,12.50
2023-03-22T08:45:43.285Z,12.50
2023-03-22T08:48:10.856Z,12.60
2023-03-22T08:50:38.266Z,12.60
2023-03-22T08:53:05.845Z,12.70
2023-03-22T08:55:37.363Z,12.70
2023-03-22T08:58:13.359Z,12.80
2023-03-22T09:00:48.532Z,12.80
2023-03-22T09:03:16.479Z,12.80
2023-03-22T09:05:43.709Z,12.80
2023-03-22T09:08:18.423Z,12.90
2023-03-22T09:10:51.463Z,12.90
2023-03-22T09:13:18.793Z,12.90
2023-03-22T09:15:46.039Z,12.90
2023-03-22T09:18:17.711Z,12.90
2023-03-22T09:20:46.008Z,12.90
2023-03-22T09:23:15.632Z,12.90
2023-03-22T09:25:46.301Z,13.00
2023-03-22T09:28:13.527Z,13.00
2023-03-22T09:30:40.926Z,13.00
2023-03-22T09:33:08.288Z,13.00
2023-03-22T09:35:51.179Z,13.10
2023-03-22T09:38:18.216Z,13.20
2023-03-22T09:41:00.895Z,13.20
2023-03-22T09:44:07.714Z,13.30
2023-03-22T09:46:37.136Z,13.30
2023-03-22T09:49:12.366Z,13.40
2023-03-22T09:51:49.904Z,13.40
2023-03-22T09:54:21.611Z,13.50
2023-03-22T09:57:08.412Z,13.60
2023-03-22T10:00:11.937Z,13.60
2023-03-22T10:02:50.193Z,13.80
2023-03-22T10:05:39.771Z,13.90
2023-03-22T10:08:16.196Z,13.90
2023-03-22T10:10:43.442Z,14.00
2023-03-22T10:13:21.976Z,14.10
2023-03-22T10:15:59.246Z,14.20
2023-03-22T10:18:30.347Z,14.10
2023-03-22T10:21:00.220Z,14.20
2023-03-22T10:23:50.490Z,14.20
2023-03-22T10:30:04.480Z,14.40
2023-03-22T10:32:56.410Z,14.40
2023-03-22T10:35:24.598Z,14.40
2023-03-22T10:37:51.743Z,14.40
2023-03-22T10:40:24.539Z,14.40
2023-03-22T10:42:56.591Z,14.40
2023-03-22T10:45:24.818Z,14.40
2023-03-22T10:48:10.816Z,14.50
2023-03-22T10:50:39.827Z,14.40
2023-03-22T10:53:27.039Z,14.40
2023-03-22T10:55:54.302Z,14.30
2023-03-22T10:58:24.433Z,14.30
2023-03-22T11:00:53.529Z,14.30
2023-03-22T11:03:39.274Z,14.20
2023-03-22T11:06:17.551Z,14.10
2023-03-22T11:09:06.600Z,14.00
2023-03-22T11:11:46.550Z,14.00
2023-03-22T11:14:20.076Z,14.00
2023-03-22T11:17:17.242Z,14.00
2023-03-22T11:20:07.796Z,14.00
2023-03-22T11:22:41.465Z,14.10
2023-03-22T11:25:23.054Z,14.10
2023-03-22T11:28:04.992Z,14.20
2023-03-22T11:30:33.047Z,14.30
2023-03-22T11:33:09.369Z,14.50
2023-03-22T11:35:40.148Z,14.70
2023-03-22T11:38:10.084Z,14.70
2023-03-22T11:40:37.309Z,14.90
2023-03-22T11:43:32.531Z,14.90
2023-03-22T11:45:59.962Z,15.00
2023-03-22T11:48:29.197Z,14.90
2023-03-22T11:51:03.951Z,14.80
2023-03-22T11:53:32.756Z,14.80
2023-03-22T11:56:00.162Z,14.70
2023-03-22T11:58:29.347Z,14.70
2023-03-22T12:01:01.194Z,14.70
2023-03-22T12:03:37.593Z,14.80
2023-03-22T12:06:21.031Z,14.90
2023-03-22T12:09:14.714Z,14.90
2023-03-22T12:11:44.194Z,15.00
2023-03-22T12:14:35.264Z,15.10
2023-03-22T12:17:11.043Z,15.20
2023-03-22T12:20:29.087Z,15.20
2023-03-22T12:22:58.560Z,15.20
2023-03-22T12:25:33.414Z,15.30
2023-03-22T12:28:04.346Z,15.30
2023-03-22T12:30:34.281Z,15.40
2023-03-22T12:33:08.750Z,15.40
2023-03-22T12:35:37.105Z,15.50
2023-03-22T12:38:19.078Z,15.40
2023-03-22T12:40:50.609Z,15.50
2023-03-22T12:43:37.237Z,15.50
2023-03-22T12:46:06.944Z,15.50
2023-03-22T12:48:41.180Z,15.50
2023-03-22T12:51:09.775Z,15.60
2023-03-22T12:53:45.512Z,15.60
2023-03-22T12:56:14.766Z,15.70
2023-03-22T12:58:45.225Z,15.70
2023-03-22T13:01:36.790Z,15.70
2023-03-22T13:04:26.834Z,15.70
2023-03-22T13:06:54.702Z,15.70
2023-03-22T13:09:44.779Z,15.70
2023-03-22T13:12:18.194Z,15.70
2023-03-22T13:14:51.478Z,15.70
2023-03-22T13:17:25.190Z,15.70
2023-03-22T13:19:53.893Z,15.60
2023-03-22T13:22:41.964Z,15.70
2023-03-22T13:25:17.184Z,15.70
2023-03-22T13:27:57.090Z,15.80
2023-03-22T13:30:44.318Z,15.80
2023-03-22T13:33:11.473Z,15.90
2023-03-22T13:35:44.624Z,15.90
2023-03-22T13:38:24.480Z,15.80
2023-03-22T13:41:05.937Z,15.90
2023-03-22T13:43:37.003Z,15.90
2023-03-22T13:46:17.953Z,15.90
2023-03-22T13:48:45.094Z,15.90
2023-03-22T13:51:23.661Z,15.90
2023-03-22T13:53:53.638Z,15.90
2023-03-22T13:56:38.390Z,16.00
2023-03-22T13:59:05.404Z,16.00
2023-03-22T14:01:36.555Z,15.90
2023-03-22T14:04:12.412Z,15.90
2023-03-22T14:07:11.126Z,15.80
2023-03-22T14:09:54.895Z,15.80
2023-03-22T14:12:31.592Z,15.70
2023-03-22T14:15:06.000Z,15.60
2023-03-22T14:17:38.458Z,15.50
2023-03-22T14:20:10.798Z,15.40
